createdAt,value
2023-01-13T00:00:49.266Z,8.5
2023-01-13T00:02:48.966Z,8.5
2023-01-13T00:04:48.621Z,8.5
2023-01-13T00:08:47.994Z,8.4
2023-01-13T00:10:47.627Z,8.4
2023-01-13T00:12:50.745Z,8.4
2023-01-13T00:14:50.473Z,8.4
2023-01-13T00:26:51.980Z,8.2
2023-01-13T00:28:51.666Z,8.2
2023-01-13T00:30:51.435Z,8.1
2023-01-13T00:36:50.432Z,8
2023-01-13T00:38:50.137Z,7.9
2023-01-13T00:40:53.262Z,7.8
2023-01-13T00:42:52.926Z,7.8
2023-01-13T00:44:52.617Z,7.8
2023-01-13T00:45:54.204Z,7.7
2023-01-13T00:47:53.902Z,7.7
2023-01-13T00:53:56.340Z,7.5
2023-01-13T00:55:56.016Z,7.5
2023-01-13T00:59:55.460Z,7.4
2023-01-13T01:03:54.848Z,7.4
2023-01-13T01:05:54.589Z,7.5
2023-01-13T01:07:57.697Z,7.5
2023-01-13T01:09:57.381Z,7.5
2023-01-13T01:11:57.053Z,7.5
2023-01-13T01:13:56.803Z,7.5
2023-01-13T01:15:56.571Z,7.4
2023-01-13T01:17:56.187Z,7.4
2023-01-13T01:24:00.245Z,7.5
2023-01-13T01:25:59.983Z,7.5
2023-01-13T01:27:59.657Z,7.6
2023-01-13T01:29:59.408Z,7.6
2023-01-13T01:31:59.108Z,7.6
2023-01-13T01:33:58.832Z,7.6
2023-01-13T01:36:01.917Z,7.6
2023-01-13T01:38:01.633Z,7.6
2023-01-13T01:40:01.399Z,7.7
2023-01-13T01:41:02.927Z,7.6
2023-01-13T01:43:02.595Z,7.6
2023-01-13T01:45:02.294Z,7.7
2023-01-13T01:47:02.102Z,7.6
2023-01-13T01:49:05.171Z,7.6
2023-01-13T01:51:04.883Z,7.5
2023-01-13T01:53:04.574Z,7.5
2023-01-13T01:55:04.339Z,7.5
2023-01-13T01:57:03.986Z,7.5
2023-01-13T01:59:03.711Z,7.5
2023-01-13T02:01:03.632Z,7.5
2023-01-13T02:07:05.940Z,7.4
2023-01-13T02:09:05.651Z,7.5
2023-01-13T02:11:05.364Z,7.5
2023-01-13T02:13:05.032Z,7.4
2023-01-13T02:15:04.737Z,7.5
2023-01-13T02:17:07.965Z,7.4
2023-01-13T02:19:07.611Z,7.3
2023-01-13T02:21:07.318Z,7.4
2023-01-13T02:23:07.057Z,7.4
2023-01-13T02:25:06.764Z,7.3
2023-01-13T02:29:06.130Z,7.4
2023-01-13T02:31:09.331Z,7.3
2023-01-13T02:33:09.001Z,7.3
2023-01-13T02:35:08.692Z,7.3
2023-01-13T02:36:10.253Z,7.3
2023-01-13T02:38:09.970Z,7.3
2023-01-13T02:40:09.689Z,7.3
2023-01-13T02:42:09.381Z,7.3
2023-01-13T02:44:12.493Z,7.3
2023-01-13T02:46:12.201Z,7.2
2023-01-13T02:48:11.934Z,7.2
2023-01-13T02:50:11.673Z,7.2
2023-01-13T02:52:11.398Z,7.2
2023-01-13T02:54:11.138Z,7.2
2023-01-13T02:56:10.850Z,7.2
2023-01-13T02:58:13.934Z,7.2
2023-01-13T03:00:13.685Z,7.2
2023-01-13T03:02:13.536Z,7.2
2023-01-13T03:04:13.086Z,7.3
2023-01-13T03:06:12.825Z,7.3
2023-01-13T03:08:12.562Z,7.3
2023-01-13T03:10:12.278Z,7.3
2023-01-13T03:12:15.415Z,7.2
2023-01-13T03:14:15.093Z,7.3
2023-01-13T03:16:14.858Z,7.3
2023-01-13T03:18:14.567Z,7.4
2023-01-13T03:20:14.295Z,7.4
2023-01-13T03:22:14.006Z,7.4
2023-01-13T03:24:13.715Z,7.4
2023-01-13T03:26:16.846Z,7.5
2023-01-13T03:28:16.548Z,7.4
2023-01-13T03:30:16.287Z,7.5
2023-01-13T03:32:31.613Z,7.7
2023-01-13T03:34:31.332Z,7.7
2023-01-13T03:36:31.075Z,7.9
2023-01-13T03:38:34.142Z,8
2023-01-13T03:40:33.866Z,8
2023-01-13T03:42:33.576Z,8.1
2023-01-13T03:44:33.270Z,8.1
2023-01-13T03:46:33.027Z,8.2
2023-01-13T03:48:32.743Z,8.3
2023-01-13T03:50:32.458Z,8.3
2023-01-13T03:52:35.547Z,8.3
2023-01-13T03:54:35.241Z,8.3
2023-01-13T03:56:34.949Z,8.2
2023-01-13T03:58:34.687Z,8.3
2023-01-13T04:00:34.388Z,8.3
2023-01-13T04:02:34.093Z,8.2
2023-01-13T04:04:33.797Z,8.2
2023-01-13T04:06:36.864Z,8.3
2023-01-13T04:08:36.582Z,8.3
2023-01-13T04:10:36.301Z,8.3
2023-01-13T04:16:37.624Z,8.3
2023-01-13T04:18:35.094Z,8.4
2023-01-13T04:20:38.166Z,8.2
2023-01-13T04:22:37.908Z,8.2
2023-01-13T04:24:37.602Z,8
2023-01-13T04:31:38.327Z,8.1
2023-01-13T04:33:41.414Z,8.2
2023-01-13T04:45:39.676Z,7.9
2023-01-13T04:47:42.808Z,8.1
2023-01-13T04:49:42.510Z,8
2023-01-13T04:51:42.222Z,8.2
2023-01-13T04:53:41.942Z,8.1
2023-01-13T04:55:41.670Z,8
2023-01-13T04:57:41.375Z,8
2023-01-13T04:59:41.117Z,7.9
2023-01-13T05:01:44.341Z,7.9
2023-01-13T05:03:43.985Z,8
2023-01-13T05:05:43.643Z,8
2023-01-13T05:07:43.324Z,8.1
2023-01-13T05:09:43.064Z,8
2023-01-13T05:11:42.765Z,7.9
2023-01-13T05:13:42.500Z,7.9
2023-01-13T05:15:45.683Z,7.8
2023-01-13T05:17:45.358Z,7.8
2023-01-13T05:19:45.097Z,7.9
2023-01-13T05:20:46.642Z,7.9
2023-01-13T05:22:46.327Z,7.9
2023-01-13T05:24:46.042Z,7.8
2023-01-13T05:26:45.814Z,7.8
2023-01-13T05:28:48.910Z,7.8
2023-01-13T05:30:48.655Z,7.8
2023-01-13T05:32:48.334Z,7.9
2023-01-13T05:34:48.064Z,8
2023-01-13T05:36:47.795Z,7.8
2023-01-13T05:38:47.495Z,7.6
2023-01-13T05:40:47.205Z,7.6
2023-01-13T05:42:50.349Z,7.7
2023-01-13T05:44:50.078Z,7.8
2023-01-13T05:46:49.872Z,7.7
2023-01-13T05:48:49.480Z,7.7
2023-01-13T05:50:49.236Z,7.8
2023-01-13T05:54:48.644Z,7.7
2023-01-13T05:58:51.486Z,7.7
2023-01-13T06:00:51.158Z,7.8
2023-01-13T06:02:50.957Z,7.8
2023-01-13T06:08:50.083Z,8
2023-01-13T06:10:53.230Z,7.9
2023-01-13T06:12:52.909Z,7.9
2023-01-13T06:14:52.648Z,7.9
2023-01-13T06:15:54.232Z,7.9
2023-01-13T06:19:53.654Z,7.9
2023-01-13T06:23:56.496Z,7.8
2023-01-13T06:25:56.205Z,7.8
2023-01-13T06:31:55.431Z,7.9
2023-01-13T06:33:55.139Z,7.8
2023-01-13T06:35:54.818Z,7.8
2023-01-13T06:37:58.022Z,8
2023-01-13T06:39:57.664Z,7.9
2023-01-13T06:41:57.437Z,7.9
2023-01-13T06:45:56.867Z,8
2023-01-13T06:47:56.547Z,8
2023-01-13T06:51:59.400Z,8
2023-01-13T06:59:58.266Z,8
2023-01-13T07:01:58.138Z,8
2023-01-13T07:03:57.724Z,8.1
2023-01-13T07:06:02.394Z,8
2023-01-13T07:08:02.132Z,8
2023-01-13T07:10:01.851Z,8.1
2023-01-13T07:12:23.599Z,8
2023-01-13T07:22:25.522Z,8.1
2023-01-13T07:24:25.234Z,8
2023-01-13T07:26:24.955Z,8
2023-01-13T07:28:24.664Z,8.1
2023-01-13T07:30:24.374Z,8.1
2023-01-13T07:32:27.505Z,8.1
2023-01-13T07:34:27.205Z,8.1
2023-01-13T07:36:26.911Z,8.1
2023-01-13T07:40:26.328Z,8.1
2023-01-13T07:42:26.055Z,8.2
2023-01-13T07:44:25.781Z,8.2
2023-01-13T07:46:28.892Z,8.2
2023-01-13T07:48:28.593Z,8.2
2023-01-13T07:50:28.289Z,8.2
2023-01-13T07:52:28.041Z,8.2
2023-01-13T07:54:39.662Z,8.2
2023-01-13T07:56:27.436Z,8.2
2023-01-13T07:58:27.157Z,8.2
2023-01-13T08:00:30.279Z,8.2
2023-01-13T08:02:30.172Z,8.1
2023-01-13T08:04:29.709Z,8.1
2023-01-13T08:05:31.250Z,8.2
2023-01-13T08:11:30.433Z,8.1
2023-01-13T08:13:33.500Z,8
2023-01-13T08:15:33.182Z,8
2023-01-13T08:17:32.929Z,8
2023-01-13T08:21:32.379Z,8
2023-01-13T08:23:32.075Z,7.9
2023-01-13T08:25:31.784Z,7.8
2023-01-13T08:27:34.865Z,7.9
2023-01-13T08:31:34.365Z,8
2023-01-13T08:45:35.710Z,8.1
2023-01-13T08:47:35.397Z,8.1
2023-01-13T08:49:35.162Z,8.1
2023-01-13T08:51:34.893Z,8.2
2023-01-13T08:53:34.592Z,8.3
2023-01-13T08:55:37.713Z,8.2
2023-01-13T09:00:38.687Z,8.1
2023-01-13T09:02:38.429Z,8.1
2023-01-13T09:04:38.249Z,7.9
2023-01-13T09:06:37.824Z,7.8
2023-01-13T09:08:40.941Z,7.8
2023-01-13T09:10:40.676Z,7.8
2023-01-13T09:12:40.390Z,7.7
2023-01-13T09:14:40.117Z,7.6
2023-01-13T09:16:39.798Z,7.6
2023-01-13T09:18:39.571Z,7.6
2023-01-13T09:20:39.239Z,7.5
2023-01-13T09:22:42.334Z,7.3
2023-01-13T09:24:42.083Z,7.3
2023-01-13T09:26:41.824Z,7.2
2023-01-13T09:28:41.508Z,7.2
2023-01-13T09:30:41.232Z,7.2
2023-01-13T09:32:40.985Z,7.2
2023-01-13T09:34:40.696Z,7.1
2023-01-13T09:36:43.799Z,7.1
2023-01-13T09:40:43.256Z,7
2023-01-13T09:42:42.974Z,7
2023-01-13T09:44:42.678Z,7
2023-01-13T09:46:42.545Z,7
2023-01-13T09:48:42.346Z,7.1
2023-01-13T09:52:45.141Z,7.1
2023-01-13T10:03:48.784Z,7.2
2023-01-13T10:05:48.472Z,7.2
2023-01-13T10:07:49.524Z,7.3
2023-01-13T10:09:47.955Z,7.3
2023-01-13T10:11:47.676Z,7.2
2023-01-13T10:13:47.404Z,7.2
2023-01-13T10:15:47.190Z,7.1
2023-01-13T10:17:50.247Z,7.2
2023-01-13T10:19:49.946Z,7.2
2023-01-13T10:21:49.714Z,7.1
2023-01-13T10:23:49.468Z,7.1
2023-01-13T10:25:49.305Z,7.1
2023-01-13T10:27:49.032Z,7.2
2023-01-13T10:29:48.760Z,7.3
2023-01-13T10:31:51.864Z,7.3
2023-01-13T10:33:51.614Z,7.4
2023-01-13T10:35:51.342Z,7.3
2023-01-13T10:37:51.136Z,7.2
2023-01-13T10:39:50.803Z,7.1
2023-01-13T10:41:50.569Z,7.1
2023-01-13T10:43:50.400Z,7
2023-01-13T10:45:53.517Z,6.9
2023-01-13T10:47:53.239Z,6.8
2023-01-13T10:49:53.228Z,6.8
2023-01-13T10:54:14.667Z,6.8
2023-01-13T10:56:14.419Z,6.8
2023-01-13T10:58:17.673Z,6.9
2023-01-13T11:00:17.291Z,6.8
2023-01-13T11:02:25.255Z,6.9
2023-01-13T11:04:16.884Z,6.9
2023-01-13T11:06:37.001Z,7
2023-01-13T11:08:16.395Z,7.1
2023-01-13T11:10:16.162Z,7.7
2023-01-13T11:12:19.258Z,7.6
2023-01-13T11:14:18.981Z,7.6
2023-01-13T11:16:18.781Z,7.4
2023-01-13T11:18:18.489Z,7.3
2023-01-13T11:20:18.207Z,7.3
2023-01-13T11:22:17.962Z,7.3
2023-01-13T11:24:17.529Z,7.3
2023-01-13T11:26:20.634Z,7.3
2023-01-13T11:28:20.360Z,7.3
2023-01-13T11:30:20.066Z,7.4
2023-01-13T11:32:19.796Z,7.4
2023-01-13T11:34:19.526Z,7.4
2023-01-13T11:36:20.524Z,7.4
2023-01-13T11:38:19.023Z,7.5
2023-01-13T11:40:22.148Z,7.5
2023-01-13T11:42:21.846Z,7.5
2023-01-13T11:44:21.624Z,7.6
2023-01-13T11:45:23.156Z,7.6
2023-01-13T11:47:22.911Z,7.6
2023-01-13T11:49:22.661Z,7.7
2023-01-13T11:55:25.212Z,7.6
2023-01-13T11:57:24.905Z,7.7
2023-01-13T11:59:24.663Z,8
2023-01-13T12:01:24.441Z,8.1
2023-01-13T12:03:24.280Z,8.1
2023-01-13T12:05:23.841Z,8.1
2023-01-13T12:07:26.947Z,8.2
2023-01-13T12:11:26.423Z,8.2
2023-01-13T12:13:26.099Z,8.2
2023-01-13T12:15:25.862Z,8.3
2023-01-13T12:17:25.570Z,8.3
2023-01-13T12:19:25.315Z,8.3
2023-01-13T12:23:28.148Z,8.4
2023-01-13T12:33:26.669Z,8.5
2023-01-13T12:40:30.807Z,8.6
2023-01-13T12:42:30.537Z,8.6
2023-01-13T12:44:30.266Z,8.7
2023-01-13T12:46:29.975Z,8.6
2023-01-13T12:48:33.072Z,8.6
2023-01-13T12:50:34.335Z,8.6
2023-01-13T12:52:33.990Z,8.7
2023-01-13T12:54:33.703Z,8.8
2023-01-13T12:56:36.146Z,8.8
2023-01-13T12:58:33.119Z,8.8
2023-01-13T13:00:32.829Z,8.8
2023-01-13T13:02:36.080Z,8.8
2023-01-13T13:04:35.646Z,8.9
2023-01-13T13:06:35.416Z,8.9
2023-01-13T13:08:35.069Z,8.9
2023-01-13T13:10:34.788Z,8.9
2023-01-13T13:12:34.492Z,8.9
2023-01-13T13:14:34.242Z,9
2023-01-13T13:16:37.359Z,9
2023-01-13T13:18:37.036Z,9
2023-01-13T13:20:36.720Z,9
2023-01-13T13:22:36.450Z,9
2023-01-13T13:24:36.142Z,9.1
2023-01-13T13:26:35.863Z,9.1
2023-01-13T13:28:35.559Z,9.2
2023-01-13T13:30:38.756Z,9.2
2023-01-13T13:32:38.402Z,9.2
2023-01-13T13:34:38.100Z,9.2
2023-01-13T13:39:39.977Z,9.2
2023-01-13T13:41:38.742Z,9.2
2023-01-13T13:51:40.660Z,9.4
2023-01-13T13:53:40.384Z,9.4
2023-01-13T13:55:40.043Z,9.4
2023-01-13T13:57:43.141Z,9.4
2023-01-13T13:59:42.853Z,9.4
2023-01-13T14:01:42.694Z,9.4
2023-01-13T14:03:42.224Z,9.5
2023-01-13T14:05:41.918Z,9.5
2023-01-13T14:09:41.356Z,9.4
2023-01-13T14:11:44.368Z,9.5
2023-01-13T14:13:44.073Z,9.5
2023-01-13T14:15:43.806Z,9.5
2023-01-13T14:17:43.443Z,9.5
2023-01-13T14:19:43.112Z,9.5
2023-01-13T14:21:42.781Z,9.5
2023-01-13T14:23:42.461Z,9.5
2023-01-13T14:27:45.244Z,9.4
2023-01-13T14:29:44.915Z,9.4
2023-01-13T14:32:00.224Z,9.4
2023-01-13T14:33:59.926Z,9.4
2023-01-13T14:35:59.567Z,9.3
2023-01-13T14:38:02.721Z,9.3
2023-01-13T14:40:02.362Z,9.3
2023-01-13T14:42:02.082Z,9.4
2023-01-13T14:44:01.723Z,9.3
2023-01-13T14:46:01.474Z,9.4
2023-01-13T14:48:01.129Z,9.3
2023-01-13T14:54:03.626Z,9.3
2023-01-13T14:56:03.311Z,9.3
2023-01-13T14:58:03.043Z,9.2
2023-01-13T15:00:02.710Z,9.2
2023-01-13T15:04:02.070Z,9.3
2023-01-13T15:06:05.184Z,9.3
2023-01-13T15:10:04.583Z,9.3
2023-01-13T15:12:04.225Z,9.2
2023-01-13T15:14:03.935Z,9.2
2023-01-13T15:16:03.684Z,9.1
2023-01-13T15:18:03.286Z,9.1
2023-01-13T15:20:06.497Z,9.1
2023-01-13T15:22:06.122Z,9.1
2023-01-13T15:24:05.803Z,9
2023-01-13T15:25:07.353Z,9
2023-01-13T15:27:07.029Z,9
2023-01-13T15:29:06.717Z,8.9
2023-01-13T15:31:06.454Z,8.9
2023-01-13T15:33:09.544Z,8.8
2023-01-13T15:35:09.212Z,8.8
2023-01-13T15:37:08.911Z,8.7
2023-01-13T15:39:08.606Z,8.7
2023-01-13T15:41:08.314Z,8.6
2023-01-13T15:43:08.009Z,8.7
2023-01-13T15:45:07.691Z,8.8
2023-01-13T15:47:10.813Z,8.8
2023-01-13T15:49:10.512Z,8.8
2023-01-13T15:51:10.205Z,8.8
2023-01-13T15:53:09.902Z,8.8
2023-01-13T15:55:09.677Z,8.8
2023-01-13T15:59:09.007Z,8.9
2023-01-13T16:07:11.266Z,8.9
2023-01-13T16:11:10.672Z,8.9
2023-01-13T16:13:10.400Z,9
2023-01-13T16:15:13.464Z,8.9
2023-01-13T16:17:13.173Z,8.9
2023-01-13T16:20:14.434Z,8.8
2023-01-13T16:22:14.491Z,8.8
2023-01-13T16:24:13.839Z,8.8
2023-01-13T16:26:13.518Z,8.8
2023-01-13T16:28:16.600Z,8.8
2023-01-13T16:30:16.328Z,8.8
2023-01-13T16:32:16.021Z,9
2023-01-13T16:34:15.660Z,8.9
2023-01-13T16:36:15.376Z,8.9
2023-01-13T16:38:15.082Z,8.9
2023-01-13T16:40:14.731Z,9
2023-01-13T16:42:17.851Z,8.9
2023-01-13T16:44:17.547Z,8.8
2023-01-13T16:46:17.253Z,8.7
2023-01-13T16:48:16.926Z,8.7
2023-01-13T16:50:16.645Z,8.6
2023-01-13T16:52:16.288Z,8.7
2023-01-13T16:54:16.010Z,8.7
2023-01-13T16:56:20.640Z,8.5
2023-01-13T16:58:18.819Z,8.5
2023-01-13T17:00:19.335Z,8.5
2023-01-13T17:04:18.740Z,8.5
2023-01-13T17:06:18.399Z,8.6
2023-01-13T17:08:18.225Z,8.7
2023-01-13T17:10:21.194Z,8.6
2023-01-13T17:12:20.881Z,8.6
2023-01-13T17:14:20.575Z,8.6
2023-01-13T17:17:21.827Z,8.5
2023-01-13T17:19:21.518Z,8.5
2023-01-13T17:21:21.222Z,8.6
2023-01-13T17:23:24.298Z,8.4
2023-01-13T17:27:23.733Z,8.5
2023-01-13T17:29:23.418Z,8.5
2023-01-13T17:31:23.163Z,8.5
2023-01-13T17:35:22.537Z,8.4
2023-01-13T17:37:25.645Z,8.2
2023-01-13T17:41:25.076Z,8.1
2023-01-13T17:43:24.758Z,8
2023-01-13T17:45:24.473Z,8.1
2023-01-13T17:47:24.206Z,8
2023-01-13T17:49:23.931Z,7.9
2023-01-13T17:51:27.020Z,7.8
2023-01-13T17:55:26.421Z,7.7
2023-01-13T18:01:25.719Z,7.7
2023-01-13T18:03:25.420Z,7.6
2023-01-13T18:05:28.549Z,7.7
2023-01-13T18:07:28.231Z,7.7
2023-01-13T18:09:27.966Z,7.7
2023-01-13T18:15:49.187Z,7.7
2023-01-13T18:21:51.725Z,7.7
2023-01-13T18:23:51.455Z,7.6
2023-01-13T18:25:51.165Z,7.6
2023-01-13T18:27:50.919Z,7.6
2023-01-13T18:31:53.801Z,7.6
2023-01-13T18:33:53.485Z,7.6
2023-01-13T18:35:54.773Z,7.7
2023-01-13T18:37:54.498Z,7.7
2023-01-13T18:39:54.206Z,7.8
2023-01-13T18:41:53.922Z,7.6
2023-01-13T18:45:56.824Z,7.6
2023-01-13T18:47:56.536Z,7.7
2023-01-13T18:49:56.235Z,7.7
2023-01-13T18:53:55.675Z,7.5
2023-01-13T18:55:55.406Z,7.4
2023-01-13T18:57:55.162Z,7.5
2023-01-13T18:59:58.232Z,7.5
2023-01-13T19:01:58.073Z,7.6
2023-01-13T19:03:57.692Z,7.6
2023-01-13T19:04:59.214Z,7.4
2023-01-13T19:08:58.660Z,7.3
2023-01-13T19:10:58.562Z,7.3
2023-01-13T19:13:01.555Z,7.2
2023-01-13T19:19:00.723Z,7.1
2023-01-13T19:21:00.448Z,7.2
2023-01-13T19:23:00.247Z,7.2
2023-01-13T19:25:00.038Z,7.2
2023-01-13T19:27:03.168Z,7.2
2023-01-13T19:29:02.888Z,7.2
2023-01-13T19:31:02.697Z,7.2
2023-01-13T19:33:02.347Z,7.1
2023-01-13T19:35:02.079Z,7
2023-01-13T19:37:01.823Z,7
2023-01-13T19:39:01.570Z,7
2023-01-13T19:41:04.671Z,7
2023-01-13T19:43:04.436Z,7
2023-01-13T19:45:04.147Z,7
2023-01-13T19:47:03.906Z,7
2023-01-13T19:55:06.254Z,7.1
2023-01-13T19:59:05.706Z,7.1
2023-01-13T20:00:07.244Z,7
2023-01-13T20:02:07.098Z,7.1
2023-01-13T20:04:06.745Z,7.1
2023-01-13T20:06:06.483Z,7.1
2023-01-13T20:08:09.613Z,7.2
2023-01-13T20:12:09.096Z,7.3
2023-01-13T20:14:08.814Z,7.3
2023-01-13T20:16:08.604Z,7.3
2023-01-13T20:18:08.277Z,7.2
2023-01-13T20:20:08.029Z,7.4
2023-01-13T20:22:11.173Z,7.3
2023-01-13T20:24:10.905Z,7.2
2023-01-13T20:30:10.104Z,7.2
2023-01-13T20:34:09.576Z,7.4
2023-01-13T20:36:12.689Z,7.4
2023-01-13T20:38:12.445Z,7.4
2023-01-13T20:40:12.156Z,7.5
2023-01-13T20:42:11.898Z,7.6
2023-01-13T20:44:11.632Z,7.5
2023-01-13T20:46:11.394Z,7.5
2023-01-13T20:48:11.119Z,7.4
2023-01-13T20:50:14.219Z,7.5
2023-01-13T20:52:13.944Z,7.4
2023-01-13T20:54:13.717Z,7.4
2023-01-13T20:55:15.271Z,7.4
2023-01-13T20:57:15.018Z,7.3
2023-01-13T20:59:14.730Z,7.4
2023-01-13T21:01:14.615Z,7.4
2023-01-13T21:03:17.590Z,7.2
2023-01-13T21:05:17.282Z,7.2
2023-01-13T21:07:17.033Z,7.2
2023-01-13T21:09:16.781Z,7.3
2023-01-13T21:11:16.500Z,7.3
2023-01-13T21:13:16.236Z,7.2
2023-01-13T21:15:15.985Z,7.3
2023-01-13T21:17:19.092Z,7.2
2023-01-13T21:19:18.826Z,7.2
2023-01-13T21:23:18.296Z,7.2
2023-01-13T21:25:18.051Z,7.2
2023-01-13T21:27:17.758Z,7.2
2023-01-13T21:31:20.767Z,7.3
2023-01-13T21:33:20.443Z,7.3
2023-01-13T21:35:20.145Z,7.4
2023-01-13T21:37:19.909Z,7.4
2023-01-13T21:39:19.635Z,7.4
2023-01-13T21:41:19.370Z,7.2
2023-01-13T21:43:19.096Z,7.3
2023-01-13T21:45:22.275Z,7.2
2023-01-13T21:47:22.005Z,7.1
2023-01-13T21:49:21.701Z,7.2
2023-01-13T21:51:37.492Z,7.2
2023-01-13T21:53:37.276Z,7.2
2023-01-13T21:55:37.162Z,7.3
2023-01-13T21:57:40.233Z,7.2
2023-01-13T21:59:39.974Z,7.2
2023-01-13T22:02:10.458Z,7.2
2023-01-13T22:03:39.569Z,7.2
2023-01-13T22:05:39.293Z,7.3
2023-01-13T22:07:39.014Z,7.3
2023-01-13T22:09:38.788Z,7.2
2023-01-13T22:11:42.002Z,7.2
2023-01-13T22:13:41.722Z,7.2
2023-01-13T22:15:41.483Z,7.2
2023-01-13T22:17:41.199Z,7.1
2023-01-13T22:19:40.959Z,7.1
2023-01-13T22:21:40.692Z,7.3
2023-01-13T22:23:40.393Z,7.3
2023-01-13T22:27:43.271Z,7.4
2023-01-13T22:31:42.754Z,7.4
2023-01-13T22:33:42.487Z,7.4
2023-01-13T22:37:41.933Z,7.5
2023-01-13T22:39:45.062Z,7.6
2023-01-13T22:43:44.538Z,7.5
2023-01-13T22:44:46.089Z,7.5
2023-01-13T22:46:45.825Z,7.5
2023-01-13T22:48:45.551Z,7.5
2023-01-13T22:50:45.288Z,7.5
2023-01-13T22:52:48.436Z,7.6
2023-01-13T22:54:48.164Z,7.7
2023-01-13T22:56:47.896Z,7.7
2023-01-13T22:58:47.633Z,7.6
2023-01-13T23:00:47.385Z,7.6
2023-01-13T23:02:47.135Z,7.5
2023-01-13T23:04:46.905Z,7.5
2023-01-13T23:06:49.975Z,7.6
2023-01-13T23:08:49.738Z,7.6
2023-01-13T23:14:48.921Z,7.4
2023-01-13T23:20:51.535Z,7.4
2023-01-13T23:22:51.261Z,7.4
2023-01-13T23:24:51.001Z,7.3
2023-01-13T23:28:50.497Z,7.2
2023-01-13T23:32:49.935Z,7.2
2023-01-13T23:34:53.054Z,7.4
2023-01-13T23:36:52.826Z,7.4
2023-01-13T23:38:52.544Z,7.3
2023-01-13T23:39:54.089Z,7.3
2023-01-13T23:45:53.325Z,7.1
2023-01-13T23:47:56.425Z,7.2
2023-01-13T23:49:56.129Z,7.2
2023-01-13T23:51:55.898Z,7.2
2023-01-13T23:53:55.617Z,7.2
2023-01-13T23:55:55.366Z,7.1
2023-01-13T23:57:55.132Z,7.1
2023-01-13T23:59:54.825Z,7.2
